createdAt,value
2018-03-22T00:00:03.442Z,41.97
2018-03-22T00:02:30.989Z,41.75
2018-03-22T00:05:02.079Z,42.50
2018-03-22T00:07:30.304Z,41.92
2018-03-22T00:09:57.758Z,43.00
2018-03-22T00:12:25.356Z,42.08
2018-03-22T00:14:56.474Z,45.45
2018-03-22T00:17:23.918Z,44.65
2018-03-22T00:19:51.433Z,42.55
2018-03-22T00:22:35.505Z,44.38
2018-03-22T00:25:02.979Z,43.70
2018-03-22T00:27:30.434Z,46.65
2018-03-22T00:29:57.976Z,41.17
2018-03-22T00:32:25.421Z,45.58
2018-03-22T00:34:52.925Z,41.13
2018-03-22T00:37:20.693Z,48.40
2018-03-22T00:39:48.184Z,40.80
2018-03-22T00:42:16.742Z,42.03
2018-03-22T00:44:44.180Z,39.67
2018-03-22T00:47:11.640Z,44.03
2018-03-22T00:49:39.121Z,45.42
2018-03-22T00:52:06.582Z,42.35
2018-03-22T00:54:34.016Z,41.47
2018-03-22T00:57:01.497Z,40.55
2018-03-22T00:59:28.949Z,43.70
2018-03-22T01:01:59.486Z,40.35
2018-03-22T01:04:26.937Z,45.22
2018-03-22T01:06:54.405Z,46.15
2018-03-22T01:09:21.900Z,47.28
2018-03-22T01:11:50.793Z,44.45
2018-03-22T01:14:18.233Z,42.97
2018-03-22T01:16:46.449Z,40.42
2018-03-22T01:19:13.911Z,45.70
2018-03-22T01:21:41.356Z,49.00
2018-03-22T01:24:08.825Z,44.80
2018-03-22T01:26:37.152Z,43.08
2018-03-22T01:29:05.369Z,47.40
2018-03-22T01:31:32.817Z,43.33
2018-03-22T01:34:00.340Z,45.30
2018-03-22T01:36:27.781Z,42.60
2018-03-22T01:38:55.522Z,38.85
2018-03-22T01:41:22.964Z,47.30
2018-03-22T01:43:50.420Z,42.85
2018-03-22T01:52:22.765Z,46.67
2018-03-22T01:54:50.226Z,41.58
2018-03-22T01:57:17.734Z,43.25
2018-03-22T01:59:45.180Z,40.30
2018-03-22T02:02:13.381Z,40.85
2018-03-22T02:04:40.855Z,43.15
2018-03-22T02:07:08.293Z,39.33
2018-03-22T02:09:35.827Z,39.85
2018-03-22T02:12:04.046Z,52.22
2018-03-22T02:14:31.582Z,41.30
2018-03-22T02:16:59.784Z,38.13
2018-03-22T02:19:27.257Z,37.47
2018-03-22T02:21:54.714Z,36.47
2018-03-22T02:24:22.181Z,37.80
2018-03-22T02:26:49.866Z,42.67
2018-03-22T02:29:18.244Z,42.35
2018-03-22T02:31:46.477Z,41.10
2018-03-22T02:34:14.075Z,38.78
2018-03-22T02:36:41.531Z,40.95
2018-03-22T02:39:08.977Z,39.10
2018-03-22T02:44:34.865Z,35.90
2018-03-22T02:47:02.320Z,35.17
2018-03-22T02:49:29.785Z,39.08
2018-03-22T02:51:57.244Z,40.78
2018-03-22T02:54:24.735Z,40.67
2018-03-22T02:56:52.193Z,40.08
2018-03-22T02:59:19.642Z,34.53
2018-03-22T03:01:47.169Z,38.85
2018-03-22T03:04:14.637Z,35.95
2018-03-22T03:06:42.085Z,35.08
2018-03-22T03:09:09.553Z,35.90
2018-03-22T03:11:37.028Z,38.33
2018-03-22T03:14:04.489Z,39.42
2018-03-22T03:16:31.928Z,32.92
2018-03-22T03:18:59.925Z,38.05
2018-03-22T03:21:27.428Z,38.20
2018-03-22T03:23:55.625Z,36.33
2018-03-22T03:26:23.839Z,36.78
2018-03-22T03:28:51.309Z,38.95
2018-03-22T03:31:18.786Z,39.75
2018-03-22T03:33:49.525Z,43.47
2018-03-22T03:36:19.058Z,39.05
2018-03-22T03:38:46.512Z,41.80
2018-03-22T03:41:13.959Z,39.50
2018-03-22T03:43:41.437Z,39.13
2018-03-22T03:46:08.914Z,54.17
2018-03-22T03:48:36.353Z,37.15
2018-03-22T03:51:03.805Z,40.67
2018-03-22T03:53:31.361Z,41.42
2018-03-22T03:55:58.828Z,37.70
2018-03-22T03:58:26.277Z,40.40
2018-03-22T04:00:53.762Z,40.10
2018-03-22T04:03:21.213Z,37.05
2018-03-22T04:05:48.656Z,37.38
2018-03-22T04:08:16.198Z,37.08
2018-03-22T04:10:43.669Z,35.92
2018-03-22T04:13:11.125Z,41.47
2018-03-22T04:15:38.676Z,40.70
2018-03-22T04:18:06.412Z,39.65
2018-03-22T04:20:34.724Z,41.25
2018-03-22T04:23:02.165Z,37.33
2018-03-22T04:25:29.780Z,40.33
2018-03-22T04:27:57.248Z,39.67
2018-03-22T04:30:24.696Z,41.60
2018-03-22T04:32:52.201Z,39.65
2018-03-22T04:35:19.655Z,40.33
2018-03-22T04:37:47.902Z,43.08
2018-03-22T04:40:15.349Z,39.42
2018-03-22T04:42:47.605Z,41.13
2018-03-22T04:45:15.050Z,39.35
2018-03-22T04:47:42.728Z,43.30
2018-03-22T04:50:10.174Z,40.63
2018-03-22T04:52:37.639Z,44.13
2018-03-22T04:55:05.076Z,44.50
2018-03-22T04:57:32.573Z,41.60
2018-03-22T05:00:00.021Z,41.25
2018-03-22T05:02:27.487Z,42.95
2018-03-22T05:05:00.086Z,41.30
2018-03-22T05:07:28.293Z,45.22
2018-03-22T05:09:57.433Z,38.28
2018-03-22T05:12:24.953Z,44.78
2018-03-22T05:14:52.485Z,47.28
2018-03-22T05:17:20.719Z,43.33
2018-03-22T05:19:53.610Z,42.47
2018-03-22T05:22:21.063Z,47.92
2018-03-22T05:24:56.294Z,50.25
2018-03-22T05:27:23.768Z,42.58
2018-03-22T05:29:51.216Z,46.05
2018-03-22T05:35:27.191Z,42.78
2018-03-22T05:38:03.673Z,42.45
2018-03-22T05:40:31.978Z,45.90
2018-03-22T05:43:00.218Z,47.30
2018-03-22T05:45:27.709Z,46.90
2018-03-22T05:47:55.245Z,44.67
2018-03-22T05:50:22.690Z,49.35
2018-03-22T05:52:50.140Z,48.42
2018-03-22T05:55:18.874Z,48.10
2018-03-22T06:00:38.681Z,50.12
2018-03-22T06:03:07.605Z,45.55
2018-03-22T06:05:35.224Z,47.47
2018-03-22T06:08:03.490Z,45.72
2018-03-22T06:10:31.045Z,45.10
2018-03-22T06:12:59.292Z,52.95
2018-03-22T06:15:27.650Z,48.47
2018-03-22T06:17:55.277Z,122.20
2018-03-22T06:20:27.802Z,77.07
2018-03-22T06:22:55.348Z,62.72
2018-03-22T06:25:26.036Z,58.15
2018-03-22T06:27:54.527Z,58.45
2018-03-22T06:30:22.752Z,56.17
2018-03-22T06:32:50.253Z,58.75
2018-03-22T06:35:17.669Z,56.92
2018-03-22T06:37:45.209Z,53.87
2018-03-22T06:40:12.649Z,50.63
2018-03-22T06:42:40.112Z,57.25
2018-03-22T06:45:07.558Z,49.88
2018-03-22T06:47:35.049Z,57.22
2018-03-22T06:50:02.530Z,47.72
2018-03-22T06:52:29.969Z,55.42
2018-03-22T06:54:57.484Z,50.15
2018-03-22T06:57:25.726Z,51.28
2018-03-22T06:59:53.164Z,49.17
2018-03-22T07:02:20.637Z,50.20
2018-03-22T07:04:48.072Z,47.03
2018-03-22T07:07:16.379Z,45.90
2018-03-22T07:09:43.821Z,46.85
2018-03-22T07:12:11.376Z,40.65
2018-03-22T07:14:38.843Z,44.53
2018-03-22T07:17:06.382Z,41.03
2018-03-22T07:19:33.821Z,41.97
2018-03-22T07:22:01.445Z,36.55
2018-03-22T07:24:28.885Z,50.92
2018-03-22T07:26:56.330Z,46.30
2018-03-22T07:29:23.834Z,39.33
2018-03-22T07:31:52.041Z,37.25
2018-03-22T07:34:19.509Z,36.78
2018-03-22T07:36:52.333Z,49.15
2018-03-22T07:39:19.793Z,34.58
2018-03-22T07:41:59.317Z,39.80
2018-03-22T07:44:32.507Z,35.65
2018-03-22T07:47:00.060Z,37.13
2018-03-22T07:49:27.513Z,40.85
2018-03-22T07:51:54.980Z,40.22
2018-03-22T07:54:22.678Z,42.42
2018-03-22T07:56:50.916Z,41.33
2018-03-22T07:59:18.393Z,40.38
2018-03-22T08:01:45.892Z,41.00
2018-03-22T08:04:13.324Z,37.65
2018-03-22T08:06:40.769Z,34.75
2018-03-22T08:09:09.132Z,32.88
2018-03-22T08:11:36.596Z,41.17
2018-03-22T08:14:04.038Z,34.25
2018-03-22T08:16:33.395Z,37.80
2018-03-22T08:19:00.827Z,33.53
2018-03-22T08:27:28.981Z,30.58
2018-03-22T08:29:56.462Z,30.75
2018-03-22T08:32:23.912Z,30.92
2018-03-22T08:34:51.401Z,30.92
2018-03-22T08:37:18.902Z,32.17
2018-03-22T08:39:46.496Z,34.65
2018-03-22T08:42:13.927Z,30.90
2018-03-22T08:44:41.409Z,30.50
2018-03-22T08:47:08.844Z,27.27
2018-03-22T08:49:37.098Z,30.20
2018-03-22T08:52:04.549Z,29.05
2018-03-22T08:54:32.756Z,31.70
2018-03-22T08:57:00.421Z,30.77
2018-03-22T08:59:27.923Z,35.63
2018-03-22T09:01:55.371Z,32.40
2018-03-22T09:04:22.811Z,36.55
2018-03-22T09:06:50.386Z,37.33
2018-03-22T09:09:17.838Z,33.55
2018-03-22T09:11:45.276Z,33.70
2018-03-22T09:14:12.977Z,32.58
2018-03-22T09:16:44.243Z,35.45
2018-03-22T09:19:12.446Z,32.15
2018-03-22T09:21:41.373Z,32.97
2018-03-22T09:24:08.843Z,31.17
2018-03-22T09:26:41.966Z,31.00
2018-03-22T09:29:10.316Z,33.97
2018-03-22T09:31:37.767Z,33.95
2018-03-22T09:34:05.292Z,29.87
2018-03-22T09:36:32.746Z,32.90
2018-03-22T09:39:00.196Z,34.97
2018-03-22T09:41:27.663Z,36.70
2018-03-22T09:43:55.103Z,35.15
2018-03-22T09:46:23.636Z,34.67
2018-03-22T09:48:51.109Z,35.00
2018-03-22T09:51:19.328Z,34.95
2018-03-22T09:53:46.790Z,33.58
2018-03-22T09:56:15.476Z,38.22
2018-03-22T09:58:42.929Z,33.72
2018-03-22T10:01:10.558Z,35.55
2018-03-22T10:03:38.965Z,37.38
2018-03-22T10:06:06.419Z,36.72
2018-03-22T10:08:33.865Z,37.75
2018-03-22T10:11:01.408Z,38.80
2018-03-22T10:13:29.638Z,37.83
2018-03-22T10:15:57.071Z,37.42
2018-03-22T10:18:24.539Z,41.13
2018-03-22T10:20:52.045Z,42.65
2018-03-22T10:23:19.509Z,40.75
2018-03-22T10:25:47.721Z,42.05
2018-03-22T10:28:15.305Z,41.10
2018-03-22T10:30:43.669Z,42.03
2018-03-22T10:33:11.133Z,39.85
2018-03-22T10:35:38.572Z,43.85
2018-03-22T10:38:06.039Z,44.53
2018-03-22T10:40:33.472Z,45.17
2018-03-22T10:43:00.988Z,44.45
2018-03-22T10:45:28.437Z,40.15
2018-03-22T10:47:55.909Z,44.28
2018-03-22T10:50:23.355Z,41.53
2018-03-22T10:52:50.823Z,40.30
2018-03-22T10:55:18.260Z,43.35
2018-03-22T10:57:46.035Z,38.50
2018-03-22T11:00:19.069Z,40.67
2018-03-22T11:02:52.945Z,41.20
2018-03-22T11:05:20.392Z,41.30
2018-03-22T11:07:47.824Z,41.05
2018-03-22T11:10:15.758Z,41.03
2018-03-22T11:12:43.966Z,44.08
2018-03-22T11:15:11.399Z,41.45
2018-03-22T11:17:39.326Z,39.45
2018-03-22T11:20:07.550Z,39.00
2018-03-22T11:22:35.009Z,38.95
2018-03-22T11:25:02.453Z,41.85
2018-03-22T11:27:30.739Z,39.10
2018-03-22T11:30:01.746Z,40.45
2018-03-22T11:32:29.380Z,37.58
2018-03-22T11:34:56.819Z,42.22
2018-03-22T11:37:24.273Z,40.25
2018-03-22T11:39:51.716Z,42.70
2018-03-22T11:42:19.178Z,46.05
2018-03-22T11:44:46.614Z,42.62
2018-03-22T11:47:14.978Z,46.20
2018-03-22T11:49:43.181Z,51.13
2018-03-22T11:52:10.640Z,44.78
2018-03-22T11:54:38.072Z,46.05
2018-03-22T11:57:06.305Z,42.95
2018-03-22T11:59:33.742Z,47.40
2018-03-22T12:02:01.307Z,46.67
2018-03-22T12:04:28.721Z,47.97
2018-03-22T12:06:56.965Z,46.30
2018-03-22T12:09:24.400Z,46.28
2018-03-22T12:11:51.864Z,43.97
2018-03-22T12:14:19.313Z,47.65
2018-03-22T12:16:46.896Z,46.42
2018-03-22T12:19:14.345Z,45.20
2018-03-22T12:21:41.880Z,49.20
2018-03-22T12:24:09.277Z,53.33
2018-03-22T12:26:36.758Z,42.42
2018-03-22T12:29:04.955Z,44.50
2018-03-22T12:31:32.433Z,42.53
2018-03-22T12:33:59.866Z,42.25
2018-03-22T12:36:27.302Z,47.13
2018-03-22T12:38:55.765Z,37.53
2018-03-22T12:41:23.237Z,35.08
2018-03-22T12:43:51.506Z,41.60
2018-03-22T12:46:18.977Z,34.83
2018-03-22T12:48:47.191Z,36.20
2018-03-22T12:51:14.658Z,35.55
2018-03-22T12:53:42.186Z,32.38
2018-03-22T12:56:09.777Z,32.03
2018-03-22T12:58:37.236Z,38.15
2018-03-22T13:01:04.686Z,29.35
2018-03-22T13:03:32.152Z,31.35
2018-03-22T13:05:59.602Z,32.25
2018-03-22T13:08:27.877Z,42.20
2018-03-22T13:10:55.310Z,29.70
2018-03-22T13:13:22.841Z,32.80
2018-03-22T13:15:50.280Z,37.83
2018-03-22T13:18:17.886Z,30.23
2018-03-22T13:20:46.094Z,38.50
2018-03-22T13:23:13.614Z,34.83
2018-03-22T13:25:41.828Z,40.03
2018-03-22T13:28:09.277Z,35.13
2018-03-22T13:30:39.697Z,46.60
2018-03-22T13:33:07.264Z,35.50
2018-03-22T13:35:34.718Z,41.13
2018-03-22T13:38:02.534Z,35.25
2018-03-22T13:40:29.969Z,36.58
2018-03-22T13:42:57.428Z,37.67
2018-03-22T13:45:24.893Z,29.23
2018-03-22T13:47:52.334Z,47.22
2018-03-22T13:50:20.036Z,29.60
2018-03-22T13:52:47.509Z,33.05
2018-03-22T13:55:14.977Z,31.70
2018-03-22T13:57:42.431Z,30.88
2018-03-22T14:00:10.653Z,28.73
2018-03-22T14:02:41.921Z,33.40
2018-03-22T14:05:09.373Z,34.95
2018-03-22T14:07:37.049Z,50.92
2018-03-22T14:10:04.505Z,55.75
2018-03-22T14:12:32.097Z,46.53
2018-03-22T14:14:59.532Z,43.63
2018-03-22T14:17:27.772Z,37.85
2018-03-22T14:19:55.230Z,41.35
2018-03-22T14:22:22.706Z,39.90
2018-03-22T14:24:50.160Z,41.97
2018-03-22T14:27:17.585Z,42.45
2018-03-22T14:29:45.313Z,40.12
2018-03-22T14:32:13.584Z,46.75
2018-03-22T14:34:41.034Z,42.78
2018-03-22T14:37:09.273Z,39.95
2018-03-22T14:39:36.709Z,46.20
2018-03-22T14:42:22.570Z,43.63
2018-03-22T14:44:50.777Z,45.83
2018-03-22T14:47:18.486Z,39.90
2018-03-22T14:49:45.924Z,42.03
2018-03-22T14:52:13.385Z,50.28
2018-03-22T14:54:40.841Z,49.63
2018-03-22T14:57:08.328Z,41.33
2018-03-22T14:59:36.540Z,53.70
2018-03-22T15:02:03.997Z,52.40
2018-03-22T15:04:31.528Z,46.80
2018-03-22T15:06:59.833Z,56.55
2018-03-22T15:09:27.292Z,50.78
2018-03-22T15:11:54.721Z,41.97
2018-03-22T15:14:29.121Z,43.60
2018-03-22T15:16:56.598Z,44.38
2018-03-22T15:19:24.804Z,42.15
2018-03-22T15:21:52.331Z,41.80
2018-03-22T15:24:20.536Z,38.28
2018-03-22T15:26:47.969Z,46.35
2018-03-22T15:29:16.213Z,46.40
2018-03-22T15:31:44.889Z,53.53
2018-03-22T15:34:12.398Z,42.10
2018-03-22T15:36:39.795Z,42.15
2018-03-22T15:39:07.396Z,29.83
2018-03-22T15:41:35.615Z,29.05
2018-03-22T15:44:03.108Z,34.50
2018-03-22T15:46:30.558Z,29.80
2018-03-22T15:48:58.001Z,30.83
2018-03-22T15:51:25.502Z,32.15
2018-03-22T15:53:53.712Z,30.05
2018-03-22T15:56:21.149Z,27.25
2018-03-22T15:58:48.676Z,32.88
2018-03-22T16:04:30.671Z,26.33
2018-03-22T16:06:58.106Z,25.77
2018-03-22T16:09:25.745Z,30.30
2018-03-22T16:11:53.160Z,35.08
2018-03-22T16:14:20.692Z,28.95
2018-03-22T16:16:48.138Z,26.25
2018-03-22T16:19:15.812Z,27.75
2018-03-22T16:21:44.012Z,29.45
2018-03-22T16:24:11.458Z,28.67
2018-03-22T16:26:39.084Z,31.90
2018-03-22T16:29:06.885Z,32.50
2018-03-22T16:31:35.247Z,39.47
2018-03-22T16:34:03.442Z,40.12
2018-03-22T16:36:30.932Z,38.28
2018-03-22T16:39:08.930Z,39.83
2018-03-22T16:41:36.370Z,43.42
2018-03-22T16:44:08.772Z,44.25
2018-03-22T16:46:36.245Z,48.63
2018-03-22T16:49:03.706Z,53.63
2018-03-22T16:51:31.169Z,47.47
2018-03-22T16:53:58.604Z,48.50
2018-03-22T17:02:30.045Z,56.13
2018-03-22T17:04:58.801Z,51.70
2018-03-22T17:07:26.285Z,58.70
2018-03-22T17:09:53.742Z,54.17
2018-03-22T17:12:21.282Z,49.17
2018-03-22T17:14:48.754Z,49.33
2018-03-22T17:17:16.554Z,51.65
2018-03-22T17:19:44.253Z,62.83
2018-03-22T17:22:12.473Z,85.40
2018-03-22T17:24:39.949Z,62.38
2018-03-22T17:27:07.424Z,55.08
2018-03-22T17:29:34.930Z,56.30
2018-03-22T17:32:02.393Z,51.92
2018-03-22T17:34:31.228Z,52.08
2018-03-22T17:36:58.673Z,57.62
2018-03-22T17:39:26.117Z,48.13
2018-03-22T17:41:53.592Z,53.95
2018-03-22T17:44:21.029Z,56.60
2018-03-22T17:46:48.490Z,52.80
2018-03-22T17:49:16.125Z,45.42
2018-03-22T17:51:43.564Z,49.95
2018-03-22T17:54:12.296Z,51.67
2018-03-22T17:56:39.746Z,52.70
2018-03-22T17:59:13.886Z,41.92
2018-03-22T18:01:41.333Z,40.75
2018-03-22T18:04:08.917Z,42.42
2018-03-22T18:06:37.137Z,46.33
2018-03-22T18:09:04.665Z,41.45
2018-03-22T18:11:32.872Z,48.83
2018-03-22T18:14:00.385Z,44.83
2018-03-22T18:16:27.832Z,39.97
2018-03-22T18:18:55.429Z,35.22
2018-03-22T18:21:22.990Z,47.10
2018-03-22T18:23:50.460Z,33.92
2018-03-22T18:26:19.771Z,40.90
2018-03-22T18:28:47.260Z,35.00
2018-03-22T18:31:14.705Z,36.95
2018-03-22T18:33:53.538Z,37.05
2018-03-22T18:36:20.982Z,43.22
2018-03-22T18:38:48.452Z,39.28
2018-03-22T18:41:15.901Z,47.28
2018-03-22T18:43:43.461Z,42.70
2018-03-22T18:46:10.911Z,51.50
2018-03-22T18:48:39.600Z,45.10
2018-03-22T18:51:07.047Z,50.55
2018-03-22T18:53:34.512Z,45.47
2018-03-22T18:56:01.962Z,45.05
2018-03-22T18:58:29.606Z,41.58
2018-03-22T19:01:04.704Z,44.92
2018-03-22T19:03:32.145Z,59.92
2018-03-22T19:05:59.594Z,52.65
2018-03-22T19:08:27.034Z,56.40
2018-03-22T19:10:54.568Z,49.90
2018-03-22T19:13:22.114Z,60.55
2018-03-22T19:15:49.626Z,55.20
2018-03-22T19:18:17.064Z,52.15
2018-03-22T19:20:44.576Z,61.70
2018-03-22T19:23:12.020Z,53.70
2018-03-22T19:25:39.467Z,60.15
2018-03-22T19:28:06.933Z,54.47
2018-03-22T19:30:39.311Z,52.40
2018-03-22T19:33:06.868Z,56.90
2018-03-22T19:35:34.422Z,62.05
2018-03-22T19:38:01.881Z,50.35
2018-03-22T19:40:29.412Z,52.28
2018-03-22T19:42:57.624Z,50.08
2018-03-22T19:48:22.125Z,57.80
2018-03-22T19:50:49.661Z,54.75
2018-03-22T19:53:17.111Z,52.67
2018-03-22T19:55:46.297Z,56.90
2018-03-22T19:58:13.765Z,57.42
2018-03-22T20:00:41.228Z,54.85
2018-03-22T20:03:09.237Z,64.78
2018-03-22T20:05:36.740Z,62.30
2018-03-22T20:08:13.031Z,53.95
2018-03-22T20:10:40.570Z,64.50
2018-03-22T20:13:08.016Z,73.35
2018-03-22T20:15:35.465Z,67.05
2018-03-22T20:18:04.018Z,71.05
2018-03-22T20:20:31.520Z,71.53
2018-03-22T20:22:58.966Z,72.30
2018-03-22T20:25:26.442Z,61.22
2018-03-22T20:27:53.910Z,62.60
2018-03-22T20:30:21.357Z,75.90
2018-03-22T20:32:48.845Z,62.45
2018-03-22T20:35:32.328Z,55.85
2018-03-22T20:38:04.954Z,66.75
2018-03-22T20:40:32.417Z,62.38
2018-03-22T20:42:59.886Z,56.65
2018-03-22T20:45:27.330Z,57.90
2018-03-22T20:47:54.797Z,99.20
2018-03-22T20:50:22.521Z,61.92
2018-03-22T20:52:49.981Z,60.92
2018-03-22T20:55:18.437Z,58.13
2018-03-22T20:57:46.284Z,62.13
2018-03-22T21:00:15.777Z,58.67
2018-03-22T21:02:43.225Z,59.67
2018-03-22T21:05:10.753Z,75.45
2018-03-22T21:19:02.451Z,72.82
2018-03-22T21:21:33.772Z,75.22
2018-03-22T21:24:01.248Z,76.50
2018-03-22T21:26:28.684Z,88.68
2018-03-22T21:28:56.165Z,82.88
2018-03-22T21:31:23.603Z,78.87
2018-03-22T21:33:51.206Z,85.65
2018-03-22T21:36:18.656Z,82.25
2018-03-22T21:38:47.089Z,72.22
2018-03-22T21:41:15.330Z,79.82
2018-03-22T21:43:54.776Z,68.15
2018-03-22T21:46:22.231Z,68.68
2018-03-22T21:48:49.901Z,63.45
2018-03-22T21:51:17.406Z,66.70
2018-03-22T21:53:45.769Z,70.55
2018-03-22T21:56:13.227Z,63.03
2018-03-22T21:58:41.538Z,61.70
2018-03-22T22:01:08.972Z,60.63
2018-03-22T22:03:36.416Z,62.72
2018-03-22T22:06:07.308Z,60.38
2018-03-22T22:08:34.781Z,66.47
2018-03-22T22:11:02.222Z,61.20
2018-03-22T22:13:29.702Z,58.30
2018-03-22T22:15:57.210Z,54.83
2018-03-22T22:18:24.605Z,55.63
2018-03-22T22:20:53.805Z,62.47
2018-03-22T22:23:21.256Z,60.80
2018-03-22T22:25:48.706Z,53.15
2018-03-22T22:28:16.212Z,51.30
2018-03-22T22:30:44.418Z,50.80
2018-03-22T22:33:11.889Z,51.97
2018-03-22T22:35:41.813Z,54.45
2018-03-22T22:38:09.249Z,58.33
2018-03-22T22:40:36.693Z,66.32
2018-03-22T22:43:04.174Z,51.67
2018-03-22T22:45:35.465Z,60.70
2018-03-22T22:48:11.824Z,52.65
2018-03-22T22:50:39.264Z,56.83
2018-03-22T22:53:06.709Z,51.85
2018-03-22T22:55:34.188Z,49.03
2018-03-22T22:58:01.629Z,47.78
2018-03-22T23:00:29.066Z,48.13
2018-03-22T23:02:56.713Z,39.65
2018-03-22T23:05:24.161Z,42.38
2018-03-22T23:10:44.137Z,45.50
2018-03-22T23:13:11.604Z,38.58
2018-03-22T23:15:39.809Z,39.03
2018-03-22T23:18:07.542Z,42.10
2018-03-22T23:20:35.754Z,38.85
2018-03-22T23:23:04.077Z,34.33
2018-03-22T23:25:31.510Z,42.75
2018-03-22T23:27:58.983Z,34.65
2018-03-22T23:33:18.157Z,35.47
2018-03-22T23:35:45.621Z,41.05
2018-03-22T23:38:13.057Z,39.42
2018-03-22T23:40:40.532Z,34.35
2018-03-22T23:43:08.002Z,43.25
2018-03-22T23:45:35.440Z,41.70
2018-03-22T23:56:36.393Z,37.90
2018-03-22T23:59:03.877Z,45.67
